Terminal Aerodrome Forecast
Issued by NWS

Home | Current Version | Previous Version | Text Only | Print | Product List | Glossary Off
Versions: 1 2 3 4 5 6 7 8 9 10 11 12 13 14 15 16 17 18 19 20 21 22 23 24 25 26 27 28 29 30 31 32 33 34 35 36 37 38 39 40 41 42 43 44 45 46 47 48 49 50

000
FTUS43 KLOT 121000 AAB
TAFGYY
TAF AMD
KGYY 121029Z 1210/1306 15004KT P6SM SCT040 BKN100
     FM121100 17006KT P6SM SHRA VCTS BKN040 BKN060CB
     FM121330 18007KT P6SM SCT035 BKN120
     FM122300 22010KT P6SM VCTS BKN040CB
     FM130400 26010G16KT 3SM TSRA SCT015 OVC035CB=

USA.gov is the U.S. government's official web portal to all federal, state and local government web resources and services.